Time;durP1;ratioP1;P1;durP2;ratioP2;P2;SDS_P1;SDS_P2;PMS_P1;PMS_P2;Temp;Humidity;BMP_temperature;BMP_pressure;BME280_temperature;BME280_humidity;BME280_pressure;Samples;Min_cycle;Max_cycle;Signal;HPM_P1;HPM_P2
2023/05/30 00:02:57;;;;;;;11.30;5.50;;;;;;;16.01;56.94;99129.35;223512;184;138922;-65
2023/05/30 00:08:00;;;;;;;12.40;5.50;;;;;;;15.99;56.57;99127.56;223737;185;136479;-65
2023/05/30 00:13:04;;;;;;;10.70;5.60;;;;;;;16.02;56.29;99130.33;223567;184;147619;-63
2023/05/30 00:18:08;;;;;;;10.80;5.50;;;;;;;15.98;56.35;99131.40;223602;184;138970;-64
2023/05/30 00:23:12;;;;;;;8.50;5.10;;;;;;;15.87;56.71;99131.57;223563;183;136777;-65
2023/05/30 00:33:29;;;;;;;9.10;4.60;;;;;;;15.80;57.20;99127.30;219751;194;665778;-65
2023/05/30 00:38:33;;;;;;;12.00;3.90;;;;;;;15.76;56.84;99132.34;223777;183;135792;-63
2023/05/30 00:43:37;;;;;;;10.10;3.90;;;;;;;15.80;56.08;99136.30;223782;182;143490;-65
2023/05/30 00:48:41;;;;;;;8.00;3.90;;;;;;;15.90;55.41;99133.74;223700;183;139580;-63
2023/05/30 00:53:45;;;;;;;6.80;4.00;;;;;;;15.98;55.04;99132.86;223769;183;136608;-63
2023/05/30 00:58:50;;;;;;;9.60;3.60;;;;;;;16.01;54.80;99128.98;223675;183;144709;-65
2023/05/30 01:03:54;;;;;;;8.60;3.80;;;;;;;16.08;54.32;99129.67;223658;183;138620;-64
2023/05/30 01:08:59;;;;;;;9.90;3.80;;;;;;;16.16;53.91;99132.99;223674;183;136533;-66
2023/05/30 01:14:20;;;;;;;7.50;3.80;;;;;;;16.14;54.00;99133.13;223700;183;145494;-68
2023/05/30 01:19:46;;;;;;;6.00;3.90;;;;;;;16.08;53.84;99133.63;223763;183;138881;-66
2023/05/30 01:25:40;;;;;;;7.60;3.60;;;;;;;15.98;54.06;99135.88;223691;183;136932;-65
2023/05/30 01:30:46;;;;;;;8.60;3.70;;;;;;;15.89;54.21;99135.94;223716;183;145338;-66
2023/05/30 01:35:50;;;;;;;11.10;4.00;;;;;;;15.83;54.47;99135.66;223723;183;138772;-66
2023/05/30 01:40:56;;;;;;;8.90;5.40;;;;;;;15.78;54.65;99134.87;223596;183;137294;-67
2023/05/30 01:46:30;;;;;;;10.50;4.90;;;;;;;15.77;54.86;99135.48;223602;183;145860;-66
2023/05/30 01:51:48;;;;;;;10.80;5.40;;;;;;;15.72;55.62;99134.05;223613;184;138899;-65
2023/05/30 01:56:56;;;;;;;9.30;4.70;;;;;;;15.62;56.22;99132.55;223666;184;137357;-67
2023/05/30 02:02:01;;;;;;;13.40;5.40;;;;;;;15.55;56.49;99131.71;223531;180;147350;-68
2023/05/30 02:07:04;;;;;;;15.20;6.00;;;;;;;15.46;56.73;99134.41;223713;183;149950;-66
2023/05/30 02:12:10;;;;;;;16.00;5.80;;;;;;;15.36;56.85;99132.83;223619;184;137189;-66
2023/05/30 02:17:13;;;;;;;9.20;5.70;;;;;;;15.31;57.12;99131.79;223709;183;145716;-67
2023/05/30 02:22:17;;;;;;;14.30;5.30;;;;;;;15.28;57.76;99132.45;223541;184;138152;-67
2023/05/30 02:27:20;;;;;;;9.80;5.60;;;;;;;15.22;58.39;99132.16;223634;184;137885;-67
2023/05/30 02:32:23;;;;;;;14.10;6.50;;;;;;;15.16;58.40;99133.04;223616;184;145055;-68
2023/05/30 02:37:27;;;;;;;11.70;6.10;;;;;;;15.14;58.34;99133.89;223624;184;138733;-67
2023/05/30 02:42:31;;;;;;;14.00;5.70;;;;;;;15.21;57.95;99134.79;223684;183;137399;-65
2023/05/30 02:47:34;;;;;;;17.10;7.90;;;;;;;15.30;57.24;99138.86;223565;184;146726;-64
2023/05/30 02:52:38;;;;;;;17.80;7.50;;;;;;;15.40;57.10;99141.50;223573;183;138500;-65
2023/05/30 02:57:42;;;;;;;17.00;8.70;;;;;;;15.40;57.29;99146.34;223631;183;137504;-65
2023/05/30 03:02:57;;;;;;;20.80;9.60;;;;;;;15.35;57.85;99153.09;223584;183;146543;-65
2023/05/30 03:08:03;;;;;;;16.40;10.70;;;;;;;15.31;58.38;99158.23;223647;184;139002;-66
2023/05/30 03:13:16;;;;;;;25.00;11.50;;;;;;;15.30;58.97;99158.39;223557;184;137919;-64
2023/05/30 03:18:19;;;;;;;21.60;11.50;;;;;;;15.26;59.49;99160.09;223740;182;145293;-64
2023/05/30 03:23:23;;;;;;;23.80;12.10;;;;;;;15.26;59.67;99160.67;223748;181;139322;-65
2023/05/30 03:28:26;;;;;;;22.80;10.80;;;;;;;15.28;59.80;99168.56;223808;182;137092;-66
2023/05/30 03:33:56;;;;;;;17.70;10.70;;;;;;;15.27;59.97;99175.90;223789;182;145254;-66
2023/05/30 03:39:00;;;;;;;19.60;11.50;;;;;;;15.29;59.80;99178.13;223680;182;138279;-66
2023/05/30 03:44:03;;;;;;;18.30;10.70;;;;;;;15.32;59.78;99186.46;223718;182;137360;-67
2023/05/30 03:49:06;;;;;;;20.80;11.50;;;;;;;15.36;59.43;99188.80;223796;182;146042;-66
2023/05/30 03:54:11;;;;;;;17.00;11.00;;;;;;;15.40;59.41;99186.36;223757;182;138333;-67
2023/05/30 03:59:17;;;;;;;19.10;10.90;;;;;;;15.44;59.09;99192.31;223739;181;136944;-68
2023/05/30 04:04:21;;;;;;;20.60;11.70;;;;;;;15.48;59.11;99193.23;223851;182;145338;-67
2023/05/30 04:09:24;;;;;;;20.60;10.70;;;;;;;15.55;58.97;99194.83;223723;182;140460;-67
2023/05/30 04:14:27;;;;;;;19.10;11.20;;;;;;;15.62;58.85;99197.47;223802;183;136836;-67
2023/05/30 04:19:31;;;;;;;19.00;11.10;;;;;;;15.70;58.48;99207.55;223811;182;145193;-66
2023/05/30 04:24:35;;;;;;;19.10;10.20;;;;;;;15.78;58.08;99208.23;223841;182;139380;-67
2023/05/30 04:33:37;;;;;;;34.70;22.80;;;;;;;16.03;58.44;99216.33;219906;193;677107;-67
2023/05/30 04:38:40;;;;;;;23.60;10.30;;;;;;;16.19;57.85;99213.75;223764;183;136049;-62
2023/05/30 04:43:44;;;;;;;15.70;9.00;;;;;;;16.36;57.43;99219.70;223690;183;143961;-63
2023/05/30 04:48:53;;;;;;;16.50;8.20;;;;;;;16.52;56.84;99221.80;223789;181;138511;-63
2023/05/30 04:53:56;;;;;;;14.90;8.20;;;;;;;16.71;56.27;99227.92;223802;181;136782;-63
2023/05/30 04:58:59;;;;;;;16.70;8.00;;;;;;;16.85;55.69;99228.77;223757;181;143221;-64
2023/05/30 05:04:03;;;;;;;15.10;7.90;;;;;;;16.95;55.04;99232.20;223707;182;140203;-66
2023/05/30 05:09:06;;;;;;;14.70;8.20;;;;;;;17.01;54.90;99230.75;223914;180;136755;-66
2023/05/30 05:14:09;;;;;;;14.40;7.90;;;;;;;17.11;54.94;99230.11;223926;180;144055;-66
2023/05/30 05:19:13;;;;;;;25.30;8.30;;;;;;;17.20;55.02;99228.94;223872;181;138392;-65
2023/05/30 05:24:16;;;;;;;31.30;16.00;;;;;;;17.26;55.08;99237.77;223913;181;136403;-66
2023/05/30 05:29:20;;;;;;;23.70;9.90;;;;;;;17.34;55.15;99241.23;223789;181;145146;-64
2023/05/30 05:34:25;;;;;;;18.50;7.80;;;;;;;17.40;55.36;99241.72;223714;181;138361;-65
2023/05/30 05:39:34;;;;;;;13.30;7.80;;;;;;;17.46;55.09;99247.48;223805;181;136308;-65
2023/05/30 05:44:37;;;;;;;15.90;8.20;;;;;;;17.48;55.39;99245.49;223725;181;146130;-65
2023/05/30 05:49:40;;;;;;;20.40;7.50;;;;;;;17.54;55.40;99243.71;223698;181;138390;-64
2023/05/30 05:54:43;;;;;;;24.00;11.30;;;;;;;17.60;55.36;99250.00;223818;181;136641;-68
2023/05/30 05:59:46;;;;;;;15.70;7.80;;;;;;;17.68;55.42;99252.35;223789;181;146492;-67
2023/05/30 06:04:50;;;;;;;15.70;7.30;;;;;;;17.78;55.27;99254.38;223687;181;138443;-68
2023/05/30 06:09:53;;;;;;;19.60;8.20;;;;;;;17.88;55.17;99257.66;223764;181;137104;-69
2023/05/30 06:14:56;;;;;;;15.50;8.60;;;;;;;18.00;55.50;99259.23;223672;182;145313;-67
2023/05/30 06:19:59;;;;;;;22.10;7.80;;;;;;;18.11;55.44;99259.56;223728;183;139005;-69
2023/05/30 06:25:06;;;;;;;14.90;7.70;;;;;;;18.22;56.01;99260.89;223629;181;136148;-66
2023/05/30 06:33:31;;;;;;;27.30;7.60;;;;;;;18.52;55.91;99268.41;219498;193;666322;-66
2023/05/30 06:38:35;;;;;;;15.30;6.50;;;;;;;18.67;55.59;99267.39;223879;182;137797;-64
2023/05/30 06:43:38;;;;;;;19.00;5.90;;;;;;;18.86;55.16;99272.13;223905;182;143592;-65
2023/05/30 06:48:42;;;;;;;16.90;7.10;;;;;;;19.03;54.81;99279.88;223831;182;138849;-64
2023/05/30 06:53:45;;;;;;;12.00;5.90;;;;;;;19.24;55.32;99279.92;223812;182;136326;-64
2023/05/30 06:58:48;;;;;;;10.00;6.00;;;;;;;19.36;54.17;99284.67;223770;183;145159;-64
2023/05/30 07:03:51;;;;;;;9.40;5.10;;;;;;;19.43;53.47;99294.34;223738;182;140253;-65
2023/05/30 07:08:55;;;;;;;13.30;5.70;;;;;;;19.43;52.37;99292.20;223807;182;136265;-65
2023/05/30 07:13:58;;;;;;;9.60;5.50;;;;;;;19.46;52.62;99297.10;223785;182;143326;-65
2023/05/30 07:19:01;;;;;;;7.70;4.40;;;;;;;19.50;52.54;99292.92;223661;182;138549;-66
2023/05/30 07:24:15;;;;;;;8.80;4.50;;;;;;;19.62;52.20;99292.70;223685;182;136492;-63
2023/05/30 07:29:18;;;;;;;15.00;9.30;;;;;;;19.68;52.16;99294.73;223756;182;146764;-66
2023/05/30 07:34:21;;;;;;;15.40;6.40;;;;;;;19.70;52.17;99294.49;223910;182;138372;-67
2023/05/30 07:39:24;;;;;;;14.80;8.50;;;;;;;19.73;52.01;99298.30;223815;183;136110;-67
2023/05/30 07:44:28;;;;;;;11.60;5.10;;;;;;;19.72;51.78;99296.11;223671;182;145279;-66
2023/05/30 07:49:31;;;;;;;48.70;8.70;;;;;;;19.70;51.53;99297.71;223694;183;139286;-64
2023/05/30 07:54:34;;;;;;;13.20;5.30;;;;;;;19.77;51.62;99295.58;223731;183;136471;-65
2023/05/30 07:59:38;;;;;;;13.10;4.70;;;;;;;19.79;51.58;99298.61;223757;183;145306;-67
2023/05/30 08:04:41;;;;;;;13.40;4.40;;;;;;;19.82;51.77;99298.48;223557;183;139877;-68
2023/05/30 08:09:44;;;;;;;9.70;4.70;;;;;;;19.87;52.03;99301.08;223652;183;136332;-66
2023/05/30 08:14:47;;;;;;;20.20;5.80;;;;;;;19.94;52.56;99304.58;223743;183;145586;-66
2023/05/30 08:19:52;;;;;;;30.20;11.20;;;;;;;20.03;53.95;99310.69;223727;182;138205;-70
2023/05/30 08:24:59;;;;;;;19.50;8.80;;;;;;;20.08;54.25;99310.75;223668;183;138856;-64
2023/05/30 08:33:34;;;;;;;18.60;8.40;;;;;;;20.19;54.26;99304.13;220911;216;677100;-64
2023/05/30 08:38:37;;;;;;;13.30;5.90;;;;;;;20.22;53.66;99297.31;223535;184;136248;-63
2023/05/30 08:43:41;;;;;;;14.90;5.60;;;;;;;20.28;52.66;99300.13;223785;183;143588;-63
2023/05/30 08:48:45;;;;;;;10.10;4.80;;;;;;;20.35;52.19;99303.34;223767;182;138230;-63
2023/05/30 08:54:04;;;;;;;11.20;4.50;;;;;;;20.33;52.03;99301.30;223789;183;136440;-66
2023/05/30 08:59:15;;;;;;;90.90;69.50;;;;;;;20.32;52.02;99302.70;223775;182;143926;-67
2023/05/30 09:04:27;;;;;;;11.90;5.70;;;;;;;20.31;51.39;99301.90;223707;182;138524;-64
2023/05/30 09:09:33;;;;;;;19.10;4.20;;;;;;;20.32;49.86;99303.23;223744;183;136443;-64
2023/05/30 09:14:36;;;;;;;;;;;;;;;20.36;49.48;99310.39;223735;183;143481;-63
2023/05/30 09:19:39;;;;;;;11.00;4.40;;;;;;;20.52;50.00;99315.09;223517;182;138488;-63
2023/05/30 09:24:57;;;;;;;9.20;3.80;;;;;;;20.68;51.53;99312.70;223621;182;137205;-63
2023/05/30 09:35:54;;;;;;;10.70;4.00;;;;;;;20.95;50.12;99308.65;219566;192;665206;-62
2023/05/30 09:41:03;;;;;;;12.60;4.10;;;;;;;20.95;49.89;99301.29;223768;183;137411;-63
2023/05/30 09:46:07;;;;;;;12.30;4.20;;;;;;;21.08;52.54;99304.98;223785;182;143459;-63
2023/05/30 09:51:11;;;;;;;6.70;3.60;;;;;;;21.22;51.73;99305.50;223727;181;138349;-63
2023/05/30 09:56:14;;;;;;;12.40;3.90;;;;;;;21.31;51.38;99303.09;223850;181;136389;-63
2023/05/30 10:01:18;;;;;;;8.30;3.90;;;;;;;21.43;48.94;99300.07;223771;181;146204;-65
2023/05/30 10:06:22;;;;;;;12.10;3.80;;;;;;;21.54;47.73;99304.75;223819;181;138521;-64
2023/05/30 10:11:28;;;;;;;25.60;16.40;;;;;;;21.72;47.63;99308.73;223852;181;158336;-64
2023/05/30 10:16:40;;;;;;;8.30;3.50;;;;;;;22.06;46.85;99315.48;223870;182;145275;-64
2023/05/30 10:21:44;;;;;;;8.00;3.40;;;;;;;22.17;45.71;99315.75;223966;180;139340;-64
2023/05/30 10:26:55;;;;;;;17.90;9.10;;;;;;;22.40;45.28;99312.25;223804;181;136905;-64
2023/05/30 10:32:01;;;;;;;8.60;3.30;;;;;;;22.42;43.55;99314.02;223745;182;145834;-64
2023/05/30 10:37:05;;;;;;;9.70;3.50;;;;;;;22.26;43.89;99319.00;223794;181;139171;-65
2023/05/30 10:42:18;;;;;;;6.50;3.40;;;;;;;22.23;43.88;99316.09;223721;181;136321;-65
2023/05/30 10:47:51;;;;;;;7.40;3.40;;;;;;;22.26;43.36;99308.88;223751;181;145737;-65
2023/05/30 10:52:57;;;;;;;12.30;5.60;;;;;;;22.08;42.75;99309.17;223763;181;139685;-65
2023/05/30 10:58:00;;;;;;;5.20;3.40;;;;;;;21.95;42.87;99305.09;223848;181;136179;-65
2023/05/30 11:03:03;;;;;;;9.40;3.20;;;;;;;21.91;42.97;99304.55;223695;181;145847;-66
2023/05/30 11:08:07;;;;;;;15.00;3.80;;;;;;;22.30;44.03;99298.88;223751;182;138383;-66
2023/05/30 11:13:14;;;;;;;8.30;3.90;;;;;;;22.58;43.78;99298.09;223792;181;137084;-65
2023/05/30 11:18:18;;;;;;;12.90;4.50;;;;;;;23.04;43.29;99287.09;223695;181;144971;-66
2023/05/30 11:23:24;;;;;;;9.40;3.60;;;;;;;23.25;42.68;99288.16;223757;181;138475;-66
2023/05/30 11:33:33;;;;;;;7.50;3.40;;;;;;;22.97;42.02;99294.52;219679;193;677546;-67
2023/05/30 11:38:45;;;;;;;12.50;3.60;;;;;;;22.84;41.43;99294.42;222816;183;136446;-67
2023/05/30 11:43:50;;;;;;;8.30;3.10;;;;;;;22.55;41.33;99297.07;223748;183;143561;-65
2023/05/30 11:48:57;;;;;;;8.30;2.90;;;;;;;22.36;40.94;99295.86;222895;183;138580;-66
2023/05/30 11:54:05;;;;;;;5.40;3.00;;;;;;;22.25;41.45;99298.88;223747;183;136528;-65
2023/05/30 11:59:09;;;;;;;6.10;2.80;;;;;;;22.41;42.03;99294.23;223734;181;146036;-65
2023/05/30 12:04:12;;;;;;;6.90;2.60;;;;;;;22.57;41.36;99294.52;223564;181;138608;-66
2023/05/30 12:09:16;;;;;;;6.80;3.20;;;;;;;22.43;40.90;99292.25;223706;181;136027;-65
2023/05/30 12:14:21;;;;;;;6.80;3.00;;;;;;;22.34;41.10;99293.35;223806;182;143924;-66
2023/05/30 12:19:33;;;;;;;8.70;2.80;;;;;;;22.46;41.24;99292.97;223709;182;138629;-65
2023/05/30 12:24:37;;;;;;;6.80;3.90;;;;;;;22.94;40.83;99280.88;223743;181;136531;-67
2023/05/30 12:29:41;;;;;;;9.80;4.50;;;;;;;23.32;40.19;99277.61;223693;182;145880;-66
2023/05/30 12:34:45;;;;;;;11.20;3.60;;;;;;;23.59;39.39;99275.53;223681;182;138027;-67
2023/05/30 12:39:59;;;;;;;7.20;3.40;;;;;;;24.01;39.08;99272.23;223761;183;136676;-65
2023/05/30 12:45:09;;;;;;;6.70;3.60;;;;;;;24.33;38.37;99268.52;223922;182;145472;-66
2023/05/30 12:50:13;;;;;;;9.00;3.50;;;;;;;24.55;37.79;99267.11;223795;182;138353;-65
2023/05/30 12:55:20;;;;;;;14.40;3.70;;;;;;;24.71;37.88;99268.98;223835;182;137192;-64
2023/05/30 13:00:27;;;;;;;7.30;3.70;;;;;;;24.90;38.17;99267.83;223185;182;145403;-64
2023/05/30 13:05:30;;;;;;;6.50;3.10;;;;;;;25.09;36.93;99262.04;223819;182;138686;-66
2023/05/30 13:10:33;;;;;;;23.30;14.30;;;;;;;25.17;36.56;99263.96;223773;183;136512;-66
2023/05/30 13:15:37;;;;;;;13.40;3.90;;;;;;;25.06;35.78;99266.86;223901;182;145330;-67
2023/05/30 13:20:40;;;;;;;7.30;3.10;;;;;;;24.66;35.20;99267.83;221734;182;138728;-66
2023/05/30 13:25:44;;;;;;;15.70;10.30;;;;;;;24.43;35.33;99261.77;220946;183;137454;-66
2023/05/30 13:30:47;;;;;;;5.90;3.00;;;;;;;24.28;35.63;99261.30;223601;183;145457;-67
2023/05/30 13:35:51;;;;;;;7.50;3.10;;;;;;;24.25;36.09;99261.15;223711;182;140083;-66
2023/05/30 13:40:54;;;;;;;7.00;3.40;;;;;;;24.34;36.01;99261.34;223682;182;136419;-65
2023/05/30 13:45:57;;;;;;;8.90;3.40;;;;;;;24.15;36.62;99263.55;223630;182;145180;-64
2023/05/30 13:51:01;;;;;;;8.50;3.50;;;;;;;23.96;36.24;99261.76;223693;182;139062;-64
2023/05/30 13:56:04;;;;;;;6.60;3.00;;;;;;;23.87;36.77;99265.25;223652;182;137003;-64
2023/05/30 14:01:08;;;;;;;7.00;3.40;;;;;;;24.00;36.44;99262.14;223742;183;145676;-64
2023/05/30 14:06:12;;;;;;;7.00;2.90;;;;;;;24.15;36.19;99259.36;223662;182;138376;-65
2023/05/30 14:11:16;;;;;;;7.30;3.10;;;;;;;24.12;35.75;99259.38;223668;182;136866;-65
2023/05/30 14:16:20;;;;;;;13.40;3.40;;;;;;;24.01;36.20;99269.65;223727;182;146695;-66
2023/05/30 14:21:23;;;;;;;18.30;10.00;;;;;;;23.80;35.81;99273.73;223632;182;139049;-65
2023/05/30 14:26:27;;;;;;;10.30;3.20;;;;;;;23.52;35.76;99277.73;223741;183;136915;-66
2023/05/30 14:33:32;;;;;;;4.90;2.70;;;;;;;23.18;35.84;99284.05;220332;193;676379;-65
2023/05/30 14:38:36;;;;;;;6.20;3.10;;;;;;;22.90;36.66;99291.63;223320;186;136184;-67
2023/05/30 14:43:40;;;;;;;7.30;3.20;;;;;;;22.70;36.93;99288.89;223426;185;143500;-64
2023/05/30 14:48:43;;;;;;;9.00;3.70;;;;;;;22.53;37.08;99291.84;223680;183;138838;-64
2023/05/30 14:53:46;;;;;;;8.80;2.90;;;;;;;22.41;37.36;99291.84;223824;181;136380;-64
2023/05/30 14:58:50;;;;;;;6.20;2.60;;;;;;;22.34;37.50;99291.34;223729;181;143635;-63
2023/05/30 15:03:58;;;;;;;8.60;3.20;;;;;;;22.37;37.73;99294.45;223626;181;138351;-64
2023/05/30 15:09:04;;;;;;;15.20;4.10;;;;;;;22.44;38.05;99297.75;223690;182;138393;-65
2023/05/30 15:14:08;;;;;;;8.60;3.50;;;;;;;22.49;38.34;99297.77;223733;182;144521;-64
2023/05/30 15:19:13;;;;;;;9.30;5.30;;;;;;;22.48;38.19;99294.06;223713;181;139160;-65
2023/05/30 15:24:28;;;;;;;9.70;5.50;;;;;;;22.46;37.91;99291.95;223715;181;137152;-63
2023/05/30 15:29:32;;;;;;;9.00;2.80;;;;;;;22.47;37.92;99288.94;223694;182;146415;-66
2023/05/30 15:34:38;;;;;;;5.20;2.40;;;;;;;22.42;37.86;99291.43;223603;182;139963;-64
2023/05/30 15:39:41;;;;;;;11.70;2.70;;;;;;;22.41;37.75;99291.67;223674;182;136298;-66
2023/05/30 15:44:44;;;;;;;9.20;3.20;;;;;;;22.39;38.00;99293.20;223788;182;144978;-66
2023/05/30 15:49:48;;;;;;;34.80;14.70;;;;;;;22.39;38.47;99295.33;223714;182;138306;-67
2023/05/30 15:54:51;;;;;;;54.40;36.70;;;;;;;22.38;38.44;99295.63;223685;182;136726;-64
2023/05/30 15:59:55;;;;;;;9.00;5.40;;;;;;;22.36;38.50;99296.57;223707;182;146008;-64
2023/05/30 16:04:58;;;;;;;5.30;3.10;;;;;;;22.36;38.30;99297.86;223744;182;138807;-64
2023/05/30 16:10:01;;;;;;;9.80;3.20;;;;;;;22.37;37.91;99300.95;223652;182;136352;-64
2023/05/30 16:15:08;;;;;;;8.90;3.00;;;;;;;22.41;38.16;99302.75;223747;182;145382;-63
2023/05/30 16:20:24;;;;;;;11.00;4.30;;;;;;;22.45;37.50;99308.16;223856;183;138667;-65
2023/05/30 16:25:27;;;;;;;10.80;2.80;;;;;;;22.41;37.58;99307.44;223780;182;136746;-65
2023/05/30 16:30:37;;;;;;;9.40;2.90;;;;;;;22.32;37.31;99309.10;223762;182;145915;-65
2023/05/30 16:36:05;;;;;;;8.70;2.60;;;;;;;22.22;37.18;99314.96;223797;182;138992;-64
2023/05/30 16:41:09;;;;;;;7.80;2.50;;;;;;;22.17;37.21;99319.95;223702;182;137380;-65
2023/05/30 16:46:16;;;;;;;8.40;3.20;;;;;;;22.13;36.99;99323.02;223649;183;146465;-65
2023/05/30 16:51:19;;;;;;;7.10;2.70;;;;;;;22.06;37.49;99329.55;223702;182;138425;-65
2023/05/30 16:56:23;;;;;;;10.30;3.00;;;;;;;21.96;37.16;99330.45;223732;182;136370;-63
2023/05/30 17:01:29;;;;;;;6.90;2.20;;;;;;;21.88;37.15;99335.25;223640;182;146463;-65
2023/05/30 17:06:39;;;;;;;8.20;2.70;;;;;;;21.82;36.79;99343.09;223590;182;138860;-64
2023/05/30 17:11:45;;;;;;;7.50;2.60;;;;;;;21.74;37.17;99350.80;223762;182;136366;-63
2023/05/30 17:16:48;;;;;;;195.10;169.70;;;;;;;21.67;37.71;99352.03;223534;182;145815;-64
2023/05/30 17:21:52;;;;;;;17.70;10.30;;;;;;;21.68;37.70;99356.19;223661;182;139818;-64
2023/05/30 17:26:55;;;;;;;7.10;2.80;;;;;;;21.63;37.47;99354.63;223689;183;137289;-64
2023/05/30 17:33:30;;;;;;;8.40;2.80;;;;;;;21.66;37.41;99365.52;220763;204;677459;-65
2023/05/30 17:38:33;;;;;;;5.00;2.20;;;;;;;21.61;37.47;99370.90;223790;183;137422;-65
2023/05/30 17:43:37;;;;;;;5.20;2.60;;;;;;;21.59;37.28;99378.16;223655;183;143485;-64
2023/05/30 17:48:40;;;;;;;8.50;2.30;;;;;;;21.55;37.66;99381.13;223693;183;138469;-65
2023/05/30 17:53:43;;;;;;;6.80;2.50;;;;;;;21.50;37.85;99381.98;223720;183;138047;-63
2023/05/30 17:59:01;;;;;;;9.50;2.40;;;;;;;21.45;38.52;99384.67;223775;181;147386;-64
2023/05/30 18:04:05;;;;;;;8.10;2.40;;;;;;;21.39;37.80;99387.58;223805;181;138362;-64
2023/05/30 18:09:08;;;;;;;5.50;2.40;;;;;;;21.35;38.02;99394.88;223819;181;136311;-64
2023/05/30 18:14:16;;;;;;;8.30;2.50;;;;;;;21.31;37.98;99398.39;223774;181;145703;-63
2023/05/30 18:19:19;;;;;;;6.90;3.10;;;;;;;21.25;38.54;99401.42;223889;181;138390;-63
2023/05/30 18:24:25;;;;;;;12.70;4.80;;;;;;;21.22;38.79;99407.86;223775;181;135999;-64
2023/05/30 18:29:28;;;;;;;10.00;3.20;;;;;;;21.18;38.65;99415.33;223658;181;145304;-64
2023/05/30 18:34:32;;;;;;;7.50;3.10;;;;;;;21.10;38.67;99422.86;223697;182;138559;-64
2023/05/30 18:39:35;;;;;;;10.80;3.70;;;;;;;21.01;38.53;99428.94;223672;182;136879;-64
2023/05/30 18:44:38;;;;;;;12.00;4.30;;;;;;;20.93;39.14;99439.16;223783;178;145276;-63
2023/05/30 18:49:44;;;;;;;27.70;12.30;;;;;;;20.77;39.24;99436.34;223638;182;138311;-64
2023/05/30 18:54:48;;;;;;;23.40;10.00;;;;;;;20.66;39.52;99437.98;223713;182;136809;-63
2023/05/30 18:59:51;;;;;;;43.50;32.50;;;;;;;20.57;39.82;99444.99;223744;182;145435;-64
2023/05/30 19:04:55;;;;;;;10.50;4.20;;;;;;;20.50;39.85;99452.52;223602;182;139304;-65
2023/05/30 19:09:58;;;;;;;15.90;7.00;;;;;;;20.43;40.43;99468.27;223557;181;136728;-64
2023/05/30 19:15:02;;;;;;;15.90;6.70;;;;;;;20.34;40.32;99472.28;223693;181;145978;-67
2023/05/30 19:20:06;;;;;;;182.30;136.60;;;;;;;20.25;40.41;99482.30;223670;181;139439;-66
2023/05/30 19:25:09;;;;;;;11.20;4.80;;;;;;;20.16;40.39;99491.66;223764;182;139642;-65
2023/05/30 19:30:13;;;;;;;6.70;3.40;;;;;;;19.99;39.75;99500.40;223738;181;145621;-65
2023/05/30 19:35:16;;;;;;;9.00;3.20;;;;;;;19.83;39.98;99514.38;223705;182;138519;-63
2023/05/30 19:40:19;;;;;;;5.90;2.90;;;;;;;19.64;40.29;99509.58;223704;182;136419;-64
2023/05/30 19:45:24;;;;;;;12.10;3.20;;;;;;;19.49;40.58;99514.35;223571;182;146567;-63
2023/05/30 19:50:27;;;;;;;8.20;2.90;;;;;;;19.34;41.16;99519.16;223705;181;138382;-65
2023/05/30 19:55:30;;;;;;;10.50;3.70;;;;;;;19.20;41.40;99518.08;223527;182;136872;-61
2023/05/30 20:00:40;;;;;;;8.70;2.90;;;;;;;19.09;41.26;99520.66;223539;182;145297;-65
2023/05/30 20:05:45;;;;;;;10.70;2.90;;;;;;;19.00;41.93;99521.73;223640;181;138729;-66
2023/05/30 20:10:48;;;;;;;13.00;3.40;;;;;;;18.88;41.97;99522.75;223819;182;137394;-60
2023/05/30 20:15:51;;;;;;;8.70;3.10;;;;;;;18.79;42.17;99531.13;223665;181;145242;-62
2023/05/30 20:20:55;;;;;;;9.30;3.20;;;;;;;18.71;42.52;99533.92;223647;181;138341;-63
2023/05/30 20:25:58;;;;;;;8.50;3.10;;;;;;;18.61;42.64;99538.45;223705;181;136854;-64
2023/05/30 20:31:01;;;;;;;9.00;3.00;;;;;;;18.57;42.35;99535.04;223596;181;145139;-63
2023/05/30 20:36:05;;;;;;;7.80;3.00;;;;;;;18.59;42.13;99539.98;223705;182;140508;-67
2023/05/30 20:41:09;;;;;;;9.60;2.90;;;;;;;18.53;42.44;99543.11;223710;181;136844;-64
2023/05/30 20:46:12;;;;;;;6.00;2.70;;;;;;;18.41;42.59;99549.50;223677;181;147124;-64
2023/05/30 20:51:20;;;;;;;6.10;3.00;;;;;;;18.28;42.71;99555.34;222531;181;141734;-62
2023/05/30 20:56:26;;;;;;;6.40;3.20;;;;;;;18.13;43.10;99558.38;223304;182;136214;-62
2023/05/30 21:01:44;;;;;;;9.70;3.40;;;;;;;17.99;43.87;99560.83;223795;181;145206;-63
2023/05/30 21:06:49;;;;;;;6.90;3.00;;;;;;;17.87;43.91;99559.70;223770;181;138489;-63
2023/05/30 21:11:53;;;;;;;7.50;2.90;;;;;;;17.78;44.08;99563.31;223662;181;136410;-66
2023/05/30 21:16:56;;;;;;;9.10;3.40;;;;;;;17.73;43.81;99563.34;223659;178;145287;-64
2023/05/30 21:21:59;;;;;;;12.20;3.30;;;;;;;17.78;43.47;99566.92;223682;182;138308;-63
2023/05/30 21:27:03;;;;;;;7.50;3.30;;;;;;;17.77;43.66;99564.64;223776;182;136577;-65
2023/05/30 21:33:30;;;;;;;10.20;3.60;;;;;;;17.76;43.91;99562.71;220292;193;676650;-65
2023/05/30 21:38:33;;;;;;;6.20;3.20;;;;;;;17.62;44.29;99566.90;223055;188;137317;-66
2023/05/30 21:43:36;;;;;;;9.60;3.70;;;;;;;17.63;44.13;99565.25;223183;187;143840;-64
2023/05/30 21:48:40;;;;;;;10.90;3.60;;;;;;;17.65;43.99;99566.14;223753;182;138443;-63
2023/05/30 21:53:43;;;;;;;9.30;3.60;;;;;;;17.57;44.53;99577.61;223785;181;136038;-63
2023/05/30 21:58:46;;;;;;;6.60;3.20;;;;;;;17.39;45.16;99582.98;223770;182;143954;-66
2023/05/30 22:03:51;;;;;;;8.30;3.30;;;;;;;17.20;45.44;99584.00;223747;182;139517;-64
2023/05/30 22:08:58;;;;;;;6.70;3.40;;;;;;;17.09;45.71;99588.49;223684;182;136981;-66
2023/05/30 22:14:06;;;;;;;8.00;3.50;;;;;;;17.01;45.89;99589.09;223861;181;144274;-64
2023/05/30 22:19:12;;;;;;;6.80;3.40;;;;;;;17.03;45.65;99589.12;223734;182;139333;-65
2023/05/30 22:24:15;;;;;;;8.00;3.50;;;;;;;16.95;45.90;99588.18;223715;182;136903;-64
2023/05/30 22:29:18;;;;;;;7.90;3.30;;;;;;;16.82;46.10;99583.83;223687;182;145888;-65
2023/05/30 22:34:21;;;;;;;6.60;3.10;;;;;;;16.77;45.92;99585.80;223723;182;138953;-64
2023/05/30 22:39:29;;;;;;;6.40;3.50;;;;;;;16.71;45.82;99585.89;223681;184;136165;-64
2023/05/30 22:44:32;;;;;;;10.40;3.50;;;;;;;16.71;45.48;99581.09;223783;182;145447;-62
2023/05/30 22:49:36;;;;;;;7.20;3.10;;;;;;;16.73;45.39;99581.11;223740;182;139890;-63
2023/05/30 22:54:39;;;;;;;8.10;3.40;;;;;;;16.67;45.72;99578.16;223778;179;136572;-67
2023/05/30 22:59:42;;;;;;;6.30;3.50;;;;;;;16.61;45.37;99582.23;223699;183;145280;-63
2023/05/30 23:04:46;;;;;;;6.20;2.70;;;;;;;16.52;45.53;99578.56;223643;183;138462;-65
2023/05/30 23:09:49;;;;;;;8.70;2.80;;;;;;;16.40;45.63;99575.22;223700;182;136971;-64
2023/05/30 23:14:52;;;;;;;6.40;3.10;;;;;;;16.30;46.08;99577.79;223767;183;145228;-67
2023/05/30 23:19:55;;;;;;;8.00;3.60;;;;;;;16.14;46.53;99581.35;223892;182;140082;-63
2023/05/30 23:24:58;;;;;;;10.90;3.30;;;;;;;15.99;46.84;99585.00;223713;182;137060;-65
2023/05/30 23:30:03;;;;;;;8.70;3.40;;;;;;;15.88;47.17;99583.86;223736;183;146976;-63
2023/05/30 23:35:07;;;;;;;6.30;2.90;;;;;;;15.79;47.52;99584.14;223655;182;153123;-63
2023/05/30 23:40:10;;;;;;;5.80;3.10;;;;;;;15.71;48.18;99581.24;223688;183;136820;-63
2023/05/30 23:45:14;;;;;;;5.20;3.00;;;;;;;15.64;48.07;99580.99;223704;182;146994;-62
2023/05/30 23:50:17;;;;;;;7.20;3.30;;;;;;;15.61;47.96;99583.35;223745;182;139624;-65
2023/05/30 23:55:20;;;;;;;8.00;3.20;;;;;;;15.63;47.91;99585.02;223728;182;136409;-63
